CST,Max TemperatureF,Mean TemperatureF,Min TemperatureF,Max Dew PointF,MeanDew PointF,Min DewpointF,Max Humidity, Mean Humidity, Min Humidity, Max Sea Level PressureIn, Mean Sea Level PressureIn, Min Sea Level PressureIn, Max VisibilityMiles, Mean VisibilityMiles, Min VisibilityMiles, Max Wind SpeedMPH, Mean Wind SpeedMPH, Max Gust SpeedMPH,PrecipitationIn, CloudCover, Events, WindDirDegrees
2012-12-1,77,68,60,66,63,59,100,87,65,30.22,30.17,30.13,10,9,5,15,6,17,0.00,4,,127
2012-12-2,78,69,60,68,66,61,100,88,65,30.23,30.18,30.15,10,8,0,14,7,18,0.00,2,Fog,130
2012-12-3,75,70,64,70,67,64,100,91,73,30.15,30.11,30.07,10,10,4,17,8,23,0.07,7,Rain-Thunderstorm,131
2012-12-4,77,70,60,70,66,61,100,93,74,30.19,30.14,30.09,10,9,2,22,6,37,0.53,5,Rain-Thunderstorm,137
2012-12-5,71,65,59,63,60,55,100,88,68,30.19,30.12,30.05,10,10,5,10,5,,0.01,4,Thunderstorm,4
2012-12-6,69,61,53,59,57,54,100,89,60,30.05,29.99,29.93,10,7,0,6,2,,0.00,5,Fog,47
2012-12-7,75,63,51,64,60,52,100,88,65,29.97,29.92,29.88,10,7,0,15,5,16,0.00,4,Fog,126
2012-12-8,77,72,66,68,66,64,94,87,69,29.97,29.92,29.88,10,10,10,17,8,22,0.00,3,,143
2012-12-9,80,73,66,72,68,64,100,89,65,29.96,29.89,29.84,10,9,4,18,8,22,0.00,2,,161
2012-12-10,71,55,37,70,47,34,100,81,51,30.10,29.95,29.77,10,9,2,22,10,32,0.78,4,Rain-Thunderstorm,317
2012-12-11,53,43,33,34,33,32,93,68,44,30.22,30.14,30.08,10,10,10,14,6,18,0.00,0,,351
2012-12-12,59,47,33,36,32,23,93,65,27,30.35,30.29,30.22,10,10,10,9,4,,0.00,0,,6
2012-12-13,62,47,32,37,32,28,100,69,27,30.39,30.32,30.26,10,10,2,12,3,16,0.00,0,,47
2012-12-14,64,50,37,59,48,34,100,79,63,30.27,30.16,30.01,10,10,10,14,5,17,0.00,5,,97
2012-12-15,77,68,60,68,64,59,100,89,69,30.02,29.96,29.90,10,10,10,18,7,23,0.00,7,,147
2012-12-16,73,68,62,70,65,61,100,96,78,29.90,29.84,29.78,10,8,2,18,5,25,1.29,8,Rain-Thunderstorm,171
2012-12-17,71,58,44,63,52,37,100,78,29,29.95,29.86,29.81,10,8,0,16,4,20,0.00,2,Fog,278
2012-12-18,75,58,42,61,53,41,100,83,44,29.99,29.95,29.92,10,10,7,17,4,20,0.00,0,,158
2012-12-19,78,69,60,72,66,59,100,89,69,29.94,29.87,29.78,10,9,5,24,11,31,0.00,3,,152
2012-12-20,71,53,35,72,38,23,100,59,31,30.42,30.14,29.80,10,9,3,33,14,44,0.08,2,Rain,300
2012-12-21,60,46,32,39,29,21,93,62,22,30.52,30.43,30.37,10,10,7,10,3,16,0.00,0,,320
2012-12-22,62,48,33,54,40,30,100,73,31,30.42,30.33,30.17,10,9,3,12,2,,0.00,0,,135
2012-12-23,69,62,55,64,60,54,94,85,73,30.18,30.03,29.93,10,10,10,15,7,20,0.00,6,Rain,164
2012-12-24,77,67,57,66,62,57,100,87,50,29.96,29.89,29.80,10,6,0,10,4,,0.00,3,Fog,224
2012-12-25,73,57,41,68,56,34,100,81,40,29.96,29.70,29.55,10,8,2,29,11,37,0.55,5,Rain-Thunderstorm,214
2012-12-26,44,40,35,36,33,32,93,80,66,30.21,30.14,29.96,10,10,10,20,11,26,0.00,4,,322
2012-12-27,55,44,32,50,40,32,100,86,67,30.17,30.07,29.92,10,9,5,12,4,16,0.00,4,Rain,69
2012-12-28,68,56,44,66,53,37,100,90,71,30.11,29.88,29.77,10,8,2,22,11,30,0.50,8,Rain-Thunderstorm,316
2012-12-29,50,42,35,37,31,23,87,68,37,30.46,30.32,30.11,10,10,10,18,12,29,0.00,2,,329
2012-12-30,50,41,32,37,31,27,87,66,43,30.53,30.43,30.31,10,10,10,13,6,20,0.00,1,,62
2012-12-31,62,53,44,63,49,34,100,84,66,30.32,30.13,29.98,10,9,5,12,7,16,0.00,8,,93